Flight Track Log - Related Links

Times and Time Zones

All times are in EDT time to prevent confusion due to time zone crossing. See the N9515Q flight status page for this flight to view local times or setup timezone preferences in your user account.


Time Position Orientation Groundspeed Altitude Reporting Facility
EDT Latitude Longitude Course Direction KTS MPH feet Rate Location/Type
Fri 01:52:00 PM 41.5094 -82.8750 211° Southwest  Level Estimated
Fri 01:53:00 PM 41.4876 -82.8923 211° Southwest  Level Estimated
Fri 01:54:00 PM 41.4658 -82.9097 211° Southwest  Level Estimated
Fri 01:55:00 PM 41.4441 -82.9270 211° Southwest  Level Estimated
Fri 01:56:00 PM 41.4223 -82.9443 211° Southwest  Level Estimated
Fri 01:57:00 PM 41.4005 -82.9616 211° Southwest  Level Estimated
Fri 01:57:16 PM 41.1156 -83.1469 211° Southwest 89 102 6,500  Level Indianapolis Center
Fri 01:58:00 PM 41.3787 -82.9789 211° Southwest  Level Estimated
Fri 01:58:17 PM 41.0944 -83.1614 207° Southwest 86 99 6,400  Level Indianapolis Center
Fri 01:59:00 PM 41.3569 -82.9962 211° Southwest  Level Estimated
Fri 01:59:19 PM 41.0725 -83.1750 205° Southwest 86 99 6,400  Level Indianapolis Center
Fri 02:00:00 PM 41.3351 -83.0134 211° Southwest  Level Estimated
Fri 02:00:21 PM 41.0500 -83.1914 209° Southwest 91 105 6,400  Level Indianapolis Center
Fri 02:01:00 PM 41.3134 -83.0307 211° Southwest  Level Estimated
Fri 02:01:23 PM 41.0294 -83.2097 214° Southwest 90 104 6,400  Level Indianapolis Center
Fri 02:02:00 PM 41.2916 -83.0479 211° Southwest  Level Estimated
Fri 02:02:25 PM 41.0078 -83.2267 211° Southwest 90 104 6,400  Level Indianapolis Center
Fri 02:03:27 PM 40.9842 -83.2378 200° South 89 102 6,400 -48 Level Indianapolis Center
Fri 02:04:29 PM 40.9583 -83.2533 204° Southwest 87 100 6,300 -49 Descending Indianapolis Center
Fri 02:05:30 PM 40.9353 -83.2703 209° Southwest 92 106 6,300 49 Level Indianapolis Center
Fri 02:06:32 PM 40.9136 -83.2844 206° Southwest 87 100 6,400 48 Climbing Indianapolis Center
Fri 02:07:34 PM 40.8922 -83.2983 206° Southwest 84 97 6,400 48 Level Indianapolis Center
Fri 02:08:36 PM 40.8706 -83.3131 207° Southwest 86 99 6,500  Climbing Indianapolis Center
Fri 02:09:38 PM 40.8486 -83.3297 210° Southwest 90 104 6,400 -49 Descending Indianapolis Center
Fri 02:10:39 PM 40.8250 -83.3461 208° Southwest 93 107 6,400 -49 Level Indianapolis Center
Fri 02:11:41 PM 40.8008 -83.3614 206° Southwest 96 110 6,300 -48 Descending Indianapolis Center
Fri 02:12:43 PM 40.7756 -83.3814 211° Southwest 93 107 6,300  Level Indianapolis Center
Fri 02:13:45 PM 40.7522 -83.3975 208° Southwest 93 107 6,300  Level Indianapolis Center
Fri 02:14:47 PM 40.7317 -83.4122 208° Southwest 87 100 6,300 48 Level Indianapolis Center
Fri 02:15:49 PM 40.7100 -83.4258 205° Southwest 84 97 6,400 49 Climbing Indianapolis Center
Fri 02:16:50 PM 40.6883 -83.4397 206° Southwest 87 100 6,400  Level Indianapolis Center
Fri 02:17:52 PM 40.6667 -83.4536 206° Southwest 85 98 6,400  Level Indianapolis Center
Fri 02:18:54 PM 40.6411 -83.4744 212° Southwest 91 105 6,400 48 Level Indianapolis Center
Fri 02:19:56 PM 40.6200 -83.4881 206° Southwest 86 99 6,500 48 Climbing Indianapolis Center
Fri 02:20:58 PM 40.5983 -83.4978 199° South 82 94 6,500 -48 Level Indianapolis Center
Fri 02:22:00 PM 40.5767 -83.5147 211° Southwest 88 101 6,400 -244 Descending Indianapolis Center
Fri 02:23:01 PM 40.5536 -83.5353 214° Southwest 97 112 6,000 -488 Descending Indianapolis Center
Fri 02:24:03 PM 40.5264 -83.5606 215° Southwest 114 131 5,400 -475 Descending Indianapolis Center
Fri 02:24:42 PM 40.5047 -83.5711 200° South 115 132 5,200 -290 Descending Indianapolis Center
Fri 02:25:05 PM 40.4961 -83.5750 199° South 115 132 5,100 -282 Descending Indianapolis Center
Fri 02:26:07 PM 40.4686 -83.5850 195° South 108 124 4,800 -290 Descending Indianapolis Center
Fri 02:27:09 PM 40.4375 -83.6028 204° Southwest 104 120 4,500 -220 Descending Indianapolis Center
Fri 02:27:56 PM 40.4175 -83.6206 214° Southwest 102 117 4,400  Descending Indianapolis Center
Fri 02:28:11 PM 40.4125 -83.6225 196° South 103 119 4,500 197 Climbing Indianapolis Center
Fri 02:28:57 PM 40.3911 -83.6364 206° Southwest 101 116 4,600 97 Climbing Indianapolis Center
Fri 02:29:13 PM 40.3869 -83.6386 202° Southwest 102 117 4,600  Level Indianapolis Center
Fri 02:29:58 PM 40.3667 -83.6553 212° Southwest 98 113 4,600 197 Level Indianapolis Center
Fri 02:30:14 PM 40.3631 -83.6569 199° South 100 115 4,800 689 Climbing Indianapolis Center
Fri 02:30:59 PM 40.3467 -83.6692 210° Southwest 79 91 5,300 581 Climbing Indianapolis Center
Fri 02:31:16 PM 40.3417 -83.6711 197° South 94 108 5,400 590 Climbing Indianapolis Center
Fri 02:32:00 PM 40.3272 -83.6778 199° South 72 83 5,900 581 Climbing Indianapolis Center
Fri 02:32:18 PM 40.3236 -83.6797 202° Southwest 81 93 6,000 393 Climbing Indianapolis Center
Fri 02:33:01 PM 40.3075 -83.6889 203° Southwest 72 83 6,300 387 Climbing Indianapolis Center
Fri 02:33:20 PM 40.3050 -83.6892 185° South 74 85 6,400 148 Climbing Indianapolis Center
Fri 02:34:22 PM 40.2839 -83.6956 193° South 74 85 6,500 117 Climbing Indianapolis Center
Fri 02:35:03 PM 40.2625 -83.7050 199° South 90 104 6,600 97 Climbing Indianapolis Center
Fri 02:35:24 PM 40.2567 -83.7069 194° South 82 94 6,600  Level Indianapolis Center
Fri 02:35:58 PM 40.2425 -83.7189 213° Southwest 93 107 6,600 -97 Level Indianapolis Center
Fri 02:36:26 PM 40.2328 -83.7225 196° South 89 102 6,500 -200 Descending Indianapolis Center
Fri 02:36:58 PM 40.2164 -83.7322 204° Southwest 97 112 6,400  Descending Indianapolis Center
Fri 02:37:28 PM 40.2069 -83.7361 197° South 95 109 6,500 98 Climbing Indianapolis Center
Fri 02:37:59 PM 40.1925 -83.7456 207° Southwest 95 109 6,500  Level Indianapolis Center
Fri 02:38:30 PM 40.1822 -83.7503 199° South 96 110 6,500 -197 Level Indianapolis Center
Fri 02:39:00 PM 40.1681 -83.7642 217° Southwest 100 115 6,300 -290 Descending Indianapolis Center
Fri 02:39:32 PM 40.1575 -83.7714 208° Southwest 100 115 6,200 -393 Descending Indianapolis Center
Fri 02:40:01 PM 40.1414 -83.7853 213° Southwest 110 127 5,900 -387 Descending Indianapolis Center
Fri 02:40:34 PM 40.1308 -83.7911 203° Southwest 106 122 5,800 -358 Descending Indianapolis Center
Fri 02:41:08 PM 40.1106 -83.8033 205° Southwest 107 123 5,500 -387 Descending Indianapolis Center
Fri 02:41:36 PM 40.1033 -83.8078 205° Southwest 107 123 5,400 -197 Descending Indianapolis Center
Fri 02:42:09 PM 40.0861 -83.8219 212° Southwest 106 122 5,300 97 Descending Indianapolis Center
Fri 02:42:38 PM 40.0744 -83.8294 206° Southwest 105 121 5,500 111 Climbing Indianapolis Center
Fri 02:43:03 PM 40.0639 -83.8383 213° Southwest 92 106 5,400  Descending Indianapolis Center
Fri 02:43:40 PM 40.0517 -83.8481 211° Southwest 99 114 5,500  Climbing Indianapolis Center
Fri 02:44:04 PM 40.0417 -83.8572 215° Southwest 95 109 5,400 -97 Descending Indianapolis Center
Fri 02:44:42 PM 40.0283 -83.8658 206° Southwest 97 112 5,400 -98 Level Indianapolis Center
Fri 02:45:05 PM 40.0192 -83.8761 221° Southwest 103 119 5,300  Descending Indianapolis Center
Fri 02:45:44 PM 40.0058 -83.8875 213° Southwest 99 114 5,400 98 Climbing Indianapolis Center
Fri 02:46:06 PM 39.9969 -83.8950 213° Southwest 90 104 5,400  Level Indianapolis Center
Fri 02:46:46 PM 39.9844 -83.9039 209° Southwest 94 108 5,400  Level Indianapolis Center
Fri 02:47:07 PM 39.9747 -83.9114 211° Southwest 90 104 5,400  Level Indianapolis Center
Fri 02:47:48 PM 39.9614 -83.9181 201° Southwest 92 106 5,400 98 Level Indianapolis Center
Fri 02:48:08 PM 39.9503 -83.9272 212° Southwest 94 108 5,500 -97 Climbing Indianapolis Center
Fri 02:48:50 PM 39.9333 -83.9356 201° Southwest 93 107 5,300 -393 Descending Indianapolis Center
Fri 02:49:09 PM 39.9242 -83.9403 202° Southwest 108 124 5,100 -774 Descending Indianapolis Center
Fri 02:49:52 PM 39.9047 -83.9531 207° Southwest 102 117 4,500 -787 Descending Indianapolis Center
Fri 02:50:10 PM 39.8956 -83.9611 214° Southwest 117 135 4,300 -774 Descending Indianapolis Center
Fri 02:50:54 PM 39.8747 -83.9703 199° South 111 128 3,700 -800 Descending Indianapolis Center
Fri 02:51:10 PM 39.8628 -83.9758 200° South 115 132 3,500 -290 Descending Indianapolis Center
Fri 02:51:56 PM 39.8461 -83.9869 207° Southwest 113 130 3,400  Descending Indianapolis Center
Fri 02:52:11 PM 39.8386 -83.9917 206° Southwest 100 115 3,500 97 Climbing Indianapolis Center
Fri 02:52:58 PM 39.8203 -84.0008 201° Southwest 107 123 3,500 -55 Level Indianapolis Center
Fri 02:54:00 PM 39.7950 -84.0156 204° Southwest 102 117 3,400  Descending Indianapolis Center
Fri 02:55:02 PM 39.7706 -84.0328 208° Southwest 100 115 3,500  Climbing Indianapolis Center
Fri 02:56:04 PM 39.7408 -84.0606 216° Southwest 108 124 3,400 -97 Descending Indianapolis Center
Fri 02:57:06 PM 39.7144 -84.0792 208° Southwest 108 124 3,300 48 Descending Indianapolis Center
Fri 02:58:09 PM 39.6908 -84.0961 209° Southwest 103 119 3,500 96 Climbing Indianapolis Center
Fri 02:59:11 PM 39.6675 -84.1125 208° Southwest 98 113 3,500 -47 Level Indianapolis Center
Fri 03:00:18 PM 39.6367 -84.1364 211° Southwest 109 125 3,400 -47 Descending Indianapolis Center
Fri 03:01:18 PM 39.6081 -84.1542 206° Southwest 111 128 3,400 -101 Level Indianapolis Center
Fri 03:02:17 PM 39.5869 -84.1675 206° Southwest 107 123 3,200 50 Descending Indianapolis Center
Fri 03:03:19 PM 39.5633 -84.1975 224° Southwest 103 119 3,500 145 Climbing Indianapolis Center
Fri 03:04:21 PM 39.5439 -84.2303 232° Southwest 108 124 3,500  Level Indianapolis Center
Fri 03:05:23 PM 39.5228 -84.2606 228° Southwest 111 128 3,500 -48 Level Indianapolis Center
Fri 03:06:25 PM 39.5003 -84.2889 224° Southwest 111 128 3,400 -97 Descending Indianapolis Center
Fri 03:07:27 PM 39.4775 -84.3186 225° Southwest 113 130 3,300 -145 Descending Indianapolis Center
Fri 03:08:29 PM 39.4578 -84.3506 231° Southwest 113 130 3,100 -339 Descending Indianapolis Center
Fri 03:09:31 PM 39.4367 -84.3836 230° Southwest 115 132 2,600 -339 Descending Indianapolis Center
Fri 03:10:33 PM 39.4144 -84.4133 226° Southwest 114 131 2,400 -194 Descending Indianapolis Center

Login

Don't have an account? Register now (free) for customized features, flight alerts, and more!